Time;durP1;ratioP1;P1;durP2;ratioP2;P2;SDS_P1;SDS_P2;PMS_P1;PMS_P2;Temp;Humidity;BMP_temperature;BMP_pressure;BME280_temperature;BME280_humidity;BME280_pressure;Samples;Min_cycle;Max_cycle;Signal;HPM_P1;HPM_P2
2024/03/14 00:01:06;;;;;;;10.70;6.10;;;12.70;99.90;;;;;;7305863;19;20188;-78
2024/03/14 00:03:32;;;;;;;10.37;6.53;;;12.70;99.90;;;;;;7286215;19;20196;-79
2024/03/14 00:05:58;;;;;;;10.57;6.80;;;12.60;99.90;;;;;;7284607;19;20195;-79
2024/03/14 00:08:24;;;;;;;11.47;6.67;;;12.60;99.90;;;;;;7283724;19;20203;-79
2024/03/14 00:10:52;;;;;;;11.50;7.23;;;12.70;99.90;;;;;;7284964;19;20197;-81
2024/03/14 00:13:18;;;;;;;12.47;6.90;;;12.60;99.90;;;;;;7284821;19;20185;-80
2024/03/14 00:15:44;;;;;;;10.60;7.00;;;12.80;99.90;;;;;;7285020;19;20560;-80
2024/03/14 00:18:09;;;;;;;11.17;7.63;;;12.70;99.90;;;;;;7284177;19;20201;-80
2024/03/14 00:20:37;;;;;;;12.93;6.80;;;12.70;99.90;;;;;;7302235;19;20658;-79
2024/03/14 00:23:05;;;;;;;10.63;6.70;;;12.60;99.90;;;;;;7303530;19;20189;-79
2024/03/14 00:25:31;;;;;;;9.70;6.20;;;12.50;99.90;;;;;;7298997;19;20182;-80
2024/03/14 00:27:58;;;;;;;11.57;6.63;;;12.40;99.90;;;;;;7286519;19;20198;-80
2024/03/14 00:30:27;;;;;;;10.93;6.00;;;12.30;99.90;;;;;;7285624;19;20189;-79
2024/03/14 00:32:53;;;;;;;10.27;5.70;;;12.30;99.90;;;;;;7285936;19;20197;-80
2024/03/14 00:35:19;;;;;;;10.77;6.57;;;12.20;99.90;;;;;;7285872;19;20201;-80
2024/03/14 00:37:46;;;;;;;11.27;6.20;;;12.30;99.90;;;;;;7285762;19;20553;-79
2024/03/14 00:40:12;;;;;;;8.63;5.83;;;12.30;99.90;;;;;;7284997;19;20265;-79
2024/03/14 00:42:45;;;;;;;10.27;5.87;;;12.30;99.90;;;;;;7284697;19;20193;-79
2024/03/14 00:45:14;;;;;;;11.43;5.80;;;12.20;99.90;;;;;;7284961;19;20649;-79
2024/03/14 00:47:40;;;;;;;10.63;5.73;;;12.10;99.90;;;;;;7283735;19;20191;-79
2024/03/14 00:50:08;;;;;;;9.70;5.57;;;12.00;99.90;;;;;;7296510;19;20205;-79
2024/03/14 00:52:35;;;;;;;10.30;5.57;;;12.00;99.90;;;;;;7306319;19;20200;-80
2024/03/14 00:55:00;;;;;;;8.77;5.50;;;12.00;99.90;;;;;;7283706;19;20208;-79
2024/03/14 00:57:28;;;;;;;9.40;5.43;;;12.00;99.90;;;;;;7282990;19;20664;-79
2024/03/14 00:59:54;;;;;;;9.10;5.23;;;11.90;99.90;;;;;;7284480;19;20209;-79
2024/03/14 01:02:19;;;;;;;8.70;5.67;;;11.90;99.90;;;;;;7282343;19;20185;-79
2024/03/14 01:04:45;;;;;;;9.43;5.40;;;11.90;99.90;;;;;;7282925;19;20182;-79
2024/03/14 01:07:13;;;;;;;10.87;5.50;;;11.90;99.90;;;;;;7284723;19;20288;-79
2024/03/14 01:09:39;;;;;;;8.93;5.50;;;11.90;99.90;;;;;;7283570;19;20238;-79
2024/03/14 01:12:05;;;;;;;8.47;5.43;;;11.90;99.90;;;;;;7306635;19;20201;-79
2024/03/14 01:14:31;;;;;;;10.63;5.67;;;11.80;99.90;;;;;;7284042;19;20624;-80
2024/03/14 01:16:57;;;;;;;10.57;5.63;;;11.90;99.90;;;;;;7282742;19;20819;-79
2024/03/14 01:19:22;;;;;;;9.20;5.30;;;11.80;99.90;;;;;;7283995;19;20849;-79
2024/03/14 01:21:48;;;;;;;8.93;5.83;;;11.80;99.90;;;;;;7284111;19;20593;-79
2024/03/14 01:24:14;;;;;;;9.63;5.77;;;11.70;99.90;;;;;;7282388;19;20189;-80
2024/03/14 01:26:41;;;;;;;9.33;5.67;;;11.70;99.90;;;;;;7283423;19;20185;-79
2024/03/14 01:29:07;;;;;;;8.80;5.60;;;11.70;99.90;;;;;;7283192;19;20611;-79
2024/03/14 01:31:34;;;;;;;9.87;5.80;;;11.80;99.90;;;;;;7306884;19;20193;-80
2024/03/14 01:34:01;;;;;;;9.17;5.83;;;11.70;99.90;;;;;;7282290;19;20195;-80
2024/03/14 01:36:27;;;;;;;9.13;5.90;;;11.70;99.90;;;;;;7284255;19;20237;-80
2024/03/14 01:38:53;;;;;;;9.17;5.80;;;11.70;99.90;;;;;;7283803;19;20640;-79
2024/03/14 01:41:21;;;;;;;9.37;5.70;;;11.70;99.90;;;;;;7284391;19;20184;-79
2024/03/14 01:43:59;;;;;;;11.40;5.93;;;11.70;99.90;;;;;;7282562;19;20905;-79
2024/03/14 01:46:29;;;;;;;8.73;5.97;;;11.80;99.90;;;;;;7283918;19;20240;-80
2024/03/14 01:48:56;;;;;;;9.73;5.93;;;11.70;99.90;;;;;;7283879;19;20326;-80
2024/03/14 01:51:25;;;;;;;8.67;5.63;;;11.80;99.90;;;;;;7282223;19;20181;-80
2024/03/14 01:53:51;;;;;;;9.57;5.67;;;11.90;99.90;;;;;;7283686;19;20648;-80
2024/03/14 01:56:21;;;;;;;9.60;6.17;;;11.90;99.90;;;;;;7283365;19;20186;-79
2024/03/14 01:58:53;;;;;;;11.03;6.03;;;11.80;99.90;;;;;;7284014;19;20647;-79
2024/03/14 02:01:22;;;;;;;11.60;6.13;;;11.90;99.90;;;;;;7283227;19;20189;-80
2024/03/14 02:04:07;;;;;;;9.20;6.43;;;11.90;99.90;;;;;;7282365;19;20526;-79
2024/03/14 02:06:51;;;;;;;10.20;5.83;;;11.90;99.90;;;;;;7282090;19;20690;-79
2024/03/14 02:09:22;;;;;;;9.50;6.07;;;12.00;99.90;;;;;;7181614;19;2004778;-80
2024/03/14 02:11:49;;;;;;;10.03;6.00;;;11.70;99.90;;;;;;7282658;19;20252;-79
2024/03/14 02:14:15;;;;;;;9.03;5.53;;;11.70;99.90;;;;;;7282514;19;20229;-79
2024/03/14 02:16:41;;;;;;;8.97;5.87;;;11.60;99.90;;;;;;7289065;19;20188;-80
2024/03/14 02:19:07;;;;;;;9.53;6.00;;;11.70;99.90;;;;;;7292455;19;20731;-79
2024/03/14 02:21:34;;;;;;;10.93;6.10;;;11.60;99.90;;;;;;7312335;19;20213;-80
2024/03/14 02:24:00;;;;;;;11.57;6.20;;;11.70;99.90;;;;;;7287024;19;20204;-79
2024/03/14 02:26:26;;;;;;;11.13;6.50;;;11.70;99.90;;;;;;7288919;19;20790;-80
2024/03/14 02:28:53;;;;;;;10.07;6.10;;;11.60;99.90;;;;;;7288999;19;20200;-80
2024/03/14 02:31:18;;;;;;;11.53;6.50;;;11.50;99.90;;;;;;7288233;19;20208;-79
2024/03/14 02:33:44;;;;;;;10.13;6.50;;;11.60;99.90;;;;;;7289728;19;20194;-79
2024/03/14 02:36:10;;;;;;;10.00;6.30;;;11.50;99.90;;;;;;7286610;19;20268;-80
2024/03/14 02:38:36;;;;;;;11.00;6.47;;;11.50;99.90;;;;;;7304057;19;20194;-79
2024/03/14 02:41:03;;;;;;;11.27;6.53;;;11.40;99.90;;;;;;7302362;19;20195;-81
2024/03/14 02:43:28;;;;;;;10.47;6.03;;;11.40;99.90;;;;;;7286521;19;20711;-80
2024/03/14 02:45:54;;;;;;;11.80;6.50;;;11.40;99.90;;;;;;7285719;19;20205;-80
2024/03/14 02:48:20;;;;;;;11.93;7.03;;;11.50;99.90;;;;;;7287551;19;20200;-80
2024/03/14 02:50:46;;;;;;;11.47;6.80;;;11.50;99.90;;;;;;7289881;19;20545;-80
2024/03/14 02:53:13;;;;;;;12.03;6.70;;;11.50;99.90;;;;;;7288440;19;20642;-80
2024/03/14 02:55:39;;;;;;;10.00;6.07;;;11.50;99.90;;;;;;7288511;19;20275;-80
2024/03/14 02:58:06;;;;;;;10.37;6.17;;;11.40;99.90;;;;;;7311505;19;20228;-80
2024/03/14 03:00:32;;;;;;;8.90;5.60;;;11.40;99.90;;;;;;7287999;19;20771;-80
2024/03/14 03:02:58;;;;;;;10.17;6.23;;;11.50;99.90;;;;;;7289207;19;20197;-80
2024/03/14 03:05:25;;;;;;;9.40;6.17;;;11.50;99.90;;;;;;7287623;19;20192;-80
2024/03/14 03:07:52;;;;;;;9.20;6.10;;;11.40;99.90;;;;;;7287310;19;20209;-80
2024/03/14 03:10:22;;;;;;;9.67;6.10;;;11.40;99.90;;;;;;7287756;19;20188;-80
2024/03/14 03:12:49;;;;;;;12.63;6.10;;;11.40;99.90;;;;;;7287684;19;20851;-80
2024/03/14 03:15:14;;;;;;;10.37;6.13;;;11.30;99.90;;;;;;7287941;19;20264;-80
2024/03/14 03:17:40;;;;;;;9.83;5.83;;;11.30;99.90;;;;;;7288234;19;20627;-80
2024/03/14 03:20:12;;;;;;;9.73;5.73;;;11.20;99.90;;;;;;7303552;19;20210;-79
2024/03/14 03:25:23;;;;;;;9.37;5.70;;;11.30;99.90;;;;;;7285592;19;20194;-80
2024/03/14 03:27:49;;;;;;;9.97;5.40;;;11.30;99.90;;;;;;7286038;19;20185;-80
2024/03/14 03:30:16;;;;;;;8.37;5.03;;;11.30;99.90;;;;;;7287320;19;20197;-80
2024/03/14 03:32:45;;;;;;;9.93;5.40;;;11.30;99.90;;;;;;7285895;19;20209;-80
2024/03/14 03:35:11;;;;;;;11.30;5.40;;;11.40;99.90;;;;;;7285955;19;20541;-80
2024/03/14 03:37:40;;;;;;;9.33;5.10;;;11.30;99.90;;;;;;7296110;19;20193;-79
2024/03/14 03:40:14;;;;;;;9.30;5.27;;;11.30;99.90;;;;;;7306811;19;20185;-78
2024/03/14 03:42:41;;;;;;;8.13;4.77;;;11.20;99.90;;;;;;7285163;19;20605;-80
2024/03/14 03:45:10;;;;;;;8.87;5.57;;;11.30;99.90;;;;;;7296603;19;20195;-80
2024/03/14 03:47:36;;;;;;;9.53;5.27;;;11.30;99.90;;;;;;7308754;19;20220;-80
2024/03/14 03:50:03;;;;;;;10.17;5.03;;;11.20;99.90;;;;;;7287115;19;20181;-80
2024/03/14 03:52:31;;;;;;;9.67;5.13;;;11.30;99.90;;;;;;7286967;19;21054;-80
2024/03/14 03:54:58;;;;;;;8.73;5.07;;;11.20;99.90;;;;;;7286021;19;20214;-80
2024/03/14 03:57:24;;;;;;;7.20;4.80;;;11.10;99.90;;;;;;7285598;19;20185;-80
2024/03/14 03:59:51;;;;;;;8.97;5.37;;;11.20;99.90;;;;;;7285059;19;20528;-80
2024/03/14 04:02:18;;;;;;;10.03;5.60;;;11.20;99.90;;;;;;7285947;19;20544;-80
2024/03/14 04:04:47;;;;;;;10.50;5.27;;;11.20;99.90;;;;;;7285870;19;20194;-80
2024/03/14 04:07:14;;;;;;;9.87;6.00;;;11.10;99.90;;;;;;7285571;19;21213;-80
2024/03/14 04:09:46;;;;;;;8.73;5.63;;;11.00;99.90;;;;;;7285241;19;20192;-80
2024/03/14 04:12:14;;;;;;;10.03;5.90;;;11.00;99.90;;;;;;7286608;19;20189;-79
2024/03/14 04:14:40;;;;;;;9.37;5.90;;;11.00;99.90;;;;;;7285528;19;20188;-80
2024/03/14 04:17:11;;;;;;;9.93;6.07;;;10.90;99.90;;;;;;7306113;19;20207;-79
2024/03/14 04:19:37;;;;;;;10.67;5.93;;;11.00;99.90;;;;;;7294691;19;20273;-79
2024/03/14 04:22:05;;;;;;;10.97;6.10;;;11.00;99.90;;;;;;7307818;19;20293;-80
2024/03/14 04:24:35;;;;;;;8.80;5.47;;;10.90;99.90;;;;;;7286248;19;20252;-80
2024/03/14 04:27:06;;;;;;;11.57;5.93;;;10.90;99.90;;;;;;7285353;19;20189;-80
2024/03/14 04:29:32;;;;;;;13.50;6.43;;;10.80;99.90;;;;;;7286456;19;20232;-80
2024/03/14 04:31:58;;;;;;;10.50;6.13;;;10.80;99.90;;;;;;7285751;19;20663;-80
2024/03/14 04:34:24;;;;;;;11.63;6.27;;;11.00;99.90;;;;;;7283501;19;20534;-80
2024/03/14 04:36:52;;;;;;;9.83;6.27;;;10.80;99.90;;;;;;7284273;19;20195;-80
2024/03/14 04:39:23;;;;;;;10.80;6.40;;;10.90;99.90;;;;;;7284309;19;20207;-80
2024/03/14 04:41:52;;;;;;;10.33;6.33;;;10.80;99.90;;;;;;7284276;19;20298;-80
2024/03/14 04:44:21;;;;;;;10.07;6.03;;;10.80;99.90;;;;;;7284806;19;20245;-80
2024/03/14 04:46:47;;;;;;;14.17;5.93;;;10.80;99.90;;;;;;7284385;19;20194;-80
2024/03/14 04:49:12;;;;;;;8.97;5.87;;;10.80;99.90;;;;;;7284574;19;20210;-80
2024/03/14 04:51:38;;;;;;;11.53;6.47;;;10.80;99.90;;;;;;7284327;19;20196;-80
2024/03/14 04:54:04;;;;;;;10.83;6.50;;;10.80;99.90;;;;;;7306648;19;20196;-81
2024/03/14 04:56:32;;;;;;;12.00;6.10;;;10.60;99.90;;;;;;7283384;19;20177;-80
2024/03/14 04:58:58;;;;;;;9.47;5.67;;;10.70;99.90;;;;;;7282942;19;20270;-81
2024/03/14 05:01:25;;;;;;;12.03;5.93;;;10.50;99.90;;;;;;7284321;19;20248;-78
2024/03/14 05:03:52;;;;;;;10.13;6.40;;;10.40;99.90;;;;;;7284167;19;20237;-79
2024/03/14 05:06:17;;;;;;;9.77;5.87;;;10.20;99.90;;;;;;7283588;19;20191;-79
2024/03/14 05:08:43;;;;;;;9.63;5.77;;;10.20;99.90;;;;;;7283479;19;21241;-79
2024/03/14 05:11:09;;;;;;;9.43;6.30;;;10.20;99.90;;;;;;7283155;19;20185;-79
2024/03/14 05:13:35;;;;;;;11.60;6.03;;;10.20;99.90;;;;;;7305094;19;20209;-78
2024/03/14 05:16:02;;;;;;;13.33;6.03;;;10.20;99.90;;;;;;7285855;19;20192;-79
2024/03/14 05:18:28;;;;;;;11.97;6.20;;;10.10;99.90;;;;;;7284953;19;20228;-80
2024/03/14 05:20:53;;;;;;;12.17;6.07;;;10.10;99.90;;;;;;7283751;19;20194;-79
2024/03/14 05:23:21;;;;;;;10.87;6.47;;;10.00;99.90;;;;;;7283628;19;20196;-79
2024/03/14 05:25:47;;;;;;;10.57;6.40;;;10.00;99.90;;;;;;7280597;19;20196;-79
2024/03/14 05:28:16;;;;;;;10.53;6.00;;;10.10;99.90;;;;;;7282205;19;20200;-79
2024/03/14 05:30:42;;;;;;;10.83;6.53;;;10.10;99.90;;;;;;7282915;19;20192;-80
2024/03/14 05:33:09;;;;;;;14.90;6.40;;;10.00;99.90;;;;;;7282623;19;20198;-79
2024/03/14 05:35:35;;;;;;;14.50;7.50;;;10.00;99.90;;;;;;7305442;19;20188;-80
2024/03/14 05:38:01;;;;;;;16.13;6.60;;;9.90;99.90;;;;;;7282653;19;20192;-81
2024/03/14 05:40:27;;;;;;;10.40;5.90;;;9.90;99.90;;;;;;7283004;19;20292;-81
2024/03/14 05:42:53;;;;;;;10.37;6.80;;;9.90;99.90;;;;;;7284124;19;20195;-80
2024/03/14 05:45:18;;;;;;;10.67;6.47;;;9.90;99.90;;;;;;7282989;19;20206;-80
2024/03/14 05:47:45;;;;;;;62.87;10.30;;;9.90;99.90;;;;;;7281790;19;21060;-81
2024/03/14 05:50:11;;;;;;;11.27;6.50;;;10.00;99.90;;;;;;7282307;19;20306;-79
2024/03/14 05:52:37;;;;;;;12.93;6.77;;;10.10;99.90;;;;;;7300392;19;20303;-78
2024/03/14 05:55:03;;;;;;;11.30;6.73;;;10.10;99.90;;;;;;7297196;19;20650;-82
2024/03/14 05:57:28;;;;;;;13.27;6.47;;;10.20;99.90;;;;;;7282850;19;20204;-80
2024/03/14 05:59:54;;;;;;;11.77;6.93;;;10.20;99.90;;;;;;7281448;19;20192;-80
2024/03/14 06:02:20;;;;;;;12.63;6.53;;;10.20;99.90;;;;;;7281064;19;20656;-81
2024/03/14 06:04:46;;;;;;;10.30;6.80;;;10.20;99.90;;;;;;7280386;19;20200;-81
2024/03/14 06:07:13;;;;;;;10.10;6.37;;;10.00;99.90;;;;;;7280898;19;20275;-82
2024/03/14 06:09:42;;;;;;;10.93;6.40;;;9.90;99.90;;;;;;7281005;19;20647;-82
2024/03/14 06:12:08;;;;;;;8.77;5.37;;;9.80;99.90;;;;;;7287185;19;20284;-79
2024/03/14 06:14:39;;;;;;;9.63;5.70;;;9.70;99.90;;;;;;7302270;19;20246;-83
2024/03/14 06:17:05;;;;;;;11.53;6.27;;;9.70;99.90;;;;;;7282826;19;20196;-80
2024/03/14 06:19:31;;;;;;;8.63;5.60;;;9.70;99.90;;;;;;7282162;19;20214;-80
2024/03/14 06:21:57;;;;;;;9.53;5.70;;;9.70;99.90;;;;;;7281746;19;20249;-80
2024/03/14 06:24:23;;;;;;;8.90;5.27;;;9.70;99.90;;;;;;7283175;19;20202;-80
2024/03/14 06:26:49;;;;;;;8.63;5.03;;;9.80;99.90;;;;;;7280625;19;20670;-80
2024/03/14 06:29:15;;;;;;;8.03;5.10;;;9.80;99.90;;;;;;7281175;19;20186;-79
2024/03/14 06:31:44;;;;;;;10.60;5.10;;;9.80;99.90;;;;;;7281775;19;20680;-80
2024/03/14 06:34:10;;;;;;;8.30;5.17;;;9.90;99.90;;;;;;7280739;19;20204;-79
2024/03/14 06:36:38;;;;;;;8.57;5.20;;;10.00;99.90;;;;;;7304712;19;20184;-80
2024/03/14 06:39:07;;;;;;;9.37;5.30;;;10.00;99.90;;;;;;7282069;19;20197;-80
2024/03/14 06:41:33;;;;;;;10.50;5.57;;;10.00;99.90;;;;;;7281936;19;20189;-78
2024/03/14 06:43:59;;;;;;;9.33;4.53;;;10.10;99.90;;;;;;7279557;19;20192;-78
2024/03/14 06:46:26;;;;;;;8.63;4.90;;;10.30;99.90;;;;;;7279367;19;20189;-78
2024/03/14 06:48:55;;;;;;;8.33;4.23;;;10.80;99.90;;;;;;7280773;19;20547;-78
2024/03/14 06:51:22;;;;;;;7.03;3.23;;;11.30;99.90;;;;;;7279834;19;20202;-78
2024/03/14 06:53:48;;;;;;;6.70;3.40;;;12.50;99.90;;;;;;7278292;19;20196;-78
2024/03/14 06:56:15;;;;;;;6.10;2.80;;;13.40;99.90;;;;;;7278291;19;20878;-78
2024/03/14 06:58:40;;;;;;;7.20;2.90;;;14.10;99.90;;;;;;7276401;19;20189;-78
2024/03/14 07:01:08;;;;;;;5.53;2.90;;;15.60;99.90;;;;;;7297411;19;20195;-78
2024/03/14 07:03:34;;;;;;;4.77;2.47;;;16.40;99.90;;;;;;7286075;19;20312;-78
2024/03/14 07:06:00;;;;;;;4.10;2.30;;;17.00;99.90;;;;;;7283760;19;20191;-78
2024/03/14 07:08:28;;;;;;;4.10;2.50;;;17.10;99.90;;;;;;7285204;19;20200;-78
2024/03/14 07:10:55;;;;;;;6.53;3.93;;;17.60;99.90;;;;;;7288171;19;20523;-78
2024/03/14 07:13:21;;;;;;;6.70;2.70;;;17.60;99.90;;;;;;7287333;19;20221;-78
2024/03/14 07:15:47;;;;;;;5.23;2.70;;;17.90;99.90;;;;;;7288756;19;20217;-78
2024/03/14 07:18:13;;;;;;;6.67;2.50;;;18.20;99.90;;;;;;7289333;19;20289;-78
2024/03/14 07:20:43;;;;;;;3.80;2.37;;;17.90;99.90;;;;;;7287323;19;20205;-78
2024/03/14 07:23:10;;;;;;;6.47;2.30;;;18.00;99.90;;;;;;7285685;19;20200;-78
2024/03/14 07:25:36;;;;;;;4.20;2.00;;;19.20;99.90;;;;;;7308556;19;20199;-78
2024/03/14 07:28:02;;;;;;;4.90;2.33;;;20.00;99.90;;;;;;7289499;19;20185;-79
2024/03/14 07:30:30;;;;;;;4.77;2.30;;;20.80;99.90;;;;;;7288014;19;20213;-79
2024/03/14 07:32:57;;;;;;;6.60;2.13;;;20.30;99.90;;;;;;7290081;19;20546;-78
2024/03/14 07:35:23;;;;;;;4.97;1.67;;;19.40;99.90;;;;;;7288322;19;20188;-78
2024/03/14 07:37:49;;;;;;;4.63;2.17;;;18.50;99.90;;;;;;7287569;19;20570;-79
2024/03/14 07:40:16;;;;;;;6.33;2.17;;;18.50;99.90;;;;;;7286364;19;20191;-79
2024/03/14 07:42:43;;;;;;;3.07;1.90;;;20.00;99.90;;;;;;7285517;19;20214;-78
2024/03/14 07:45:18;;;;;;;6.37;2.23;;;20.40;99.90;;;;;;7285825;19;20193;-79
2024/03/14 07:47:44;;;;;;;6.67;2.10;;;20.50;99.90;;;;;;7284951;19;20212;-79
2024/03/14 07:50:10;;;;;;;4.67;1.80;;;22.60;99.90;;;;;;7282377;19;20194;-79
2024/03/14 07:52:37;;;;;;;4.10;1.60;;;23.60;99.90;;;;;;7305796;19;20184;-79
2024/03/14 07:55:07;;;;;;;3.70;1.30;;;22.90;99.90;;;;;;7285837;19;20277;-79
2024/03/14 07:57:36;;;;;;;4.00;1.50;;;22.00;99.90;;;;;;7286536;19;20215;-79
2024/03/14 08:00:15;;;;;;;2.97;1.50;;;21.70;99.90;;;;;;7286854;19;20207;-78
2024/03/14 08:02:54;;;;;;;4.43;1.33;;;21.30;99.90;;;;;;7264724;19;20650;-78
2024/03/14 08:05:21;;;;;;;4.37;1.53;;;21.50;99.90;;;;;;7285699;19;20207;-78
2024/03/14 08:07:48;;;;;;;3.47;1.47;;;21.80;99.90;;;;;;7286053;19;20199;-79
2024/03/14 08:10:13;;;;;;;4.13;1.50;;;22.90;99.90;;;;;;7286657;19;20188;-79
2024/03/14 08:12:39;;;;;;;4.03;1.30;;;24.50;99.90;;;;;;7286277;19;20203;-79
2024/03/14 08:15:16;;;;;;;3.30;1.30;;;24.70;99.90;;;;;;7306490;19;20244;-79
2024/03/14 08:17:44;;;;;;;3.13;1.40;;;24.10;99.90;;;;;;7184030;19;2004551;-79
2024/03/14 08:20:15;;;;;;;4.53;1.47;;;23.10;99.90;;;;;;7285576;19;20533;-78
2024/03/14 08:22:42;;;;;;;3.33;1.40;;;22.60;99.90;;;;;;7285301;19;20226;-78
2024/03/14 08:25:17;;;;;;;6.77;1.60;;;22.10;99.90;;;;;;7293759;19;20656;-79
2024/03/14 08:27:49;;;;;;;3.30;1.40;;;21.40;99.90;;;;;;7283964;19;20191;-79
2024/03/14 08:30:15;;;;;;;6.47;1.60;;;22.70;99.90;;;;;;7285204;19;20797;-79
2024/03/14 08:32:43;;;;;;;3.93;1.50;;;23.70;99.90;;;;;;7284693;19;20181;-79
2024/03/14 08:35:14;;;;;;;3.43;1.40;;;22.00;99.90;;;;;;7286391;19;20200;-79
2024/03/14 08:37:43;;;;;;;4.50;1.60;;;22.50;99.90;;;;;;7285085;19;20189;-78
2024/03/14 08:40:09;;;;;;;3.93;1.43;;;22.30;99.90;;;;;;7282394;19;20189;-79
2024/03/14 08:42:37;;;;;;;3.77;1.60;;;22.70;99.90;;;;;;7304305;19;20190;-79
2024/03/14 08:45:03;;;;;;;5.27;1.60;;;21.30;99.90;;;;;;7285316;19;20768;-80
2024/03/14 08:47:30;;;;;;;3.57;1.60;;;20.20;99.90;;;;;;7282571;19;20214;-78
2024/03/14 08:49:57;;;;;;;4.87;1.60;;;19.30;99.90;;;;;;7285030;19;20958;-78
2024/03/14 08:52:26;;;;;;;5.20;1.60;;;18.70;99.90;;;;;;7285008;19;20189;-78
2024/03/14 08:54:53;;;;;;;5.50;1.70;;;17.80;99.90;;;;;;7283427;19;20655;-78
2024/03/14 08:57:18;;;;;;;5.37;1.73;;;16.80;99.90;;;;;;7283978;19;20203;-80
2024/03/14 08:59:45;;;;;;;7.00;1.70;;;16.40;99.90;;;;;;7283272;19;20190;-78
2024/03/14 09:02:11;;;;;;;6.53;2.30;;;16.40;99.90;;;;;;7283594;19;20201;-78
2024/03/14 09:04:45;;;;;;;4.63;1.50;;;16.20;99.90;;;;;;7299987;19;20224;-77
2024/03/14 09:07:13;;;;;;;5.40;1.60;;;15.70;99.90;;;;;;7284253;19;20291;-78
2024/03/14 09:09:40;;;;;;;4.67;1.60;;;15.50;99.90;;;;;;7282790;19;20732;-77
2024/03/14 09:12:13;;;;;;;7.47;1.60;;;15.40;99.90;;;;;;7306386;19;20192;-78
2024/03/14 09:14:42;;;;;;;4.93;1.47;;;15.20;99.90;;;;;;7262026;19;20189;-79
2024/03/14 09:17:11;;;;;;;6.07;1.70;;;15.20;99.90;;;;;;7292096;19;20195;-78
2024/03/14 09:19:38;;;;;;;4.30;1.37;;;15.40;99.90;;;;;;7302274;19;20190;-78
2024/03/14 09:22:06;;;;;;;4.63;1.70;;;15.40;99.90;;;;;;7300995;19;20193;-78
2024/03/14 09:24:33;;;;;;;4.83;1.40;;;15.20;99.90;;;;;;7280987;19;20188;-78
2024/03/14 09:26:58;;;;;;;4.03;1.60;;;15.20;99.90;;;;;;7282181;19;20232;-78
2024/03/14 09:29:24;;;;;;;5.70;1.70;;;15.50;99.90;;;;;;7282051;19;20649;-78
2024/03/14 09:31:50;;;;;;;18.60;3.93;;;15.80;99.90;;;;;;7282801;19;20531;-78
2024/03/14 09:34:17;;;;;;;6.57;1.80;;;16.00;99.90;;;;;;7280892;19;20189;-79
2024/03/14 09:36:44;;;;;;;3.93;1.50;;;16.10;99.90;;;;;;7281345;19;20635;-79
2024/03/14 09:39:18;;;;;;;8.13;1.90;;;16.10;99.90;;;;;;7282583;19;20184;-78
2024/03/14 09:41:46;;;;;;;5.40;1.50;;;16.10;99.90;;;;;;7282412;19;20190;-78
2024/03/14 09:44:13;;;;;;;3.13;1.30;;;16.10;99.90;;;;;;7282570;19;20227;-78
2024/03/14 09:46:46;;;;;;;5.50;1.80;;;16.00;99.90;;;;;;7279444;19;20186;-78
2024/03/14 09:49:18;;;;;;;4.73;1.60;;;15.90;99.90;;;;;;7282992;19;20194;-79
2024/03/14 09:51:47;;;;;;;5.80;1.40;;;16.00;99.90;;;;;;7281803;19;20192;-79
2024/03/14 09:54:26;;;;;;;5.83;1.50;;;16.10;99.90;;;;;;7279966;19;20222;-79
2024/03/14 09:56:53;;;;;;;4.83;1.60;;;16.30;99.90;;;;;;7282907;19;20190;-79
2024/03/14 09:59:19;;;;;;;5.80;1.27;;;16.50;99.90;;;;;;7282774;19;20243;-79
2024/03/14 10:01:46;;;;;;;3.37;1.20;;;16.70;99.90;;;;;;7283590;19;20210;-78
2024/03/14 10:04:12;;;;;;;6.03;1.20;;;17.10;99.90;;;;;;7282305;19;20220;-78
2024/03/14 10:06:42;;;;;;;3.27;1.03;;;18.20;99.90;;;;;;7296748;19;20640;-79
2024/03/14 10:09:11;;;;;;;4.30;1.20;;;20.80;99.90;;;;;;7292331;19;20204;-78
2024/03/14 10:11:38;;;;;;;4.27;1.13;;;22.10;99.90;;;;;;7304434;19;20201;-80
2024/03/14 10:14:16;;;;;;;6.07;1.07;;;23.90;99.90;;;;;;7283210;19;20196;-79
2024/03/14 10:16:44;;;;;;;4.63;1.00;;;25.10;99.90;;;;;;7260473;19;20184;-79
2024/03/14 10:19:11;;;;;;;2.80;0.80;;;26.10;99.90;;;;;;7283343;19;20193;-79
2024/03/14 10:21:37;;;;;;;5.07;1.00;;;25.70;99.90;;;;;;7303353;19;20541;-80
2024/03/14 10:24:05;;;;;;;5.10;1.08;;;27.20;98.70;;;;;;7282647;19;20899;-79
2024/03/14 10:26:30;;;;;;;4.10;1.00;;;27.80;94.00;;;;;;7282179;19;20192;-80
2024/03/14 10:28:57;;;;;;;3.65;1.10;;;26.10;95.00;;;;;;7280833;19;20241;-79
2024/03/14 10:31:24;;;;;;;4.78;1.13;;;25.30;96.10;;;;;;7283074;19;20551;-79
2024/03/14 10:33:50;;;;;;;4.20;1.10;;;25.70;97.40;;;;;;7281095;19;20540;-79
2024/03/14 10:36:18;;;;;;;4.57;1.20;;;25.30;97.50;;;;;;7287136;19;20189;-79
2024/03/14 10:38:45;;;;;;;3.08;0.80;;;25.60;96.20;;;;;;7290404;19;20216;-79
2024/03/14 10:41:17;;;;;;;4.15;1.10;;;26.50;96.80;;;;;;7287739;19;20677;-79
2024/03/14 10:43:54;;;;;;;4.22;1.00;;;27.50;93.40;;;;;;7287188;19;20195;-79
2024/03/14 10:46:20;;;;;;;3.60;1.00;;;28.30;91.80;;;;;;7286074;19;20229;-80
2024/03/14 10:48:47;;;;;;;3.97;1.02;;;29.10;90.20;;;;;;7288385;19;20189;-79
2024/03/14 10:51:16;;;;;;;5.53;1.17;;;27.00;87.60;;;;;;7288572;19;20188;-79
2024/03/14 10:53:45;;;;;;;3.40;1.10;;;25.80;92.00;;;;;;7288004;19;20738;-79
2024/03/14 10:56:22;;;;;;;4.68;1.05;;;25.90;91.40;;;;;;7287999;19;20280;-79
2024/03/14 10:58:49;;;;;;;6.75;1.17;;;25.00;92.80;;;;;;7288479;19;20560;-79
2024/03/14 11:01:17;;;;;;;2.25;0.75;;;26.20;93.10;;;;;;7287563;19;20195;-79
2024/03/14 11:03:43;;;;;;;3.83;1.02;;;25.50;91.70;;;;;;7286077;19;20667;-80
2024/03/14 11:06:20;;;;;;;5.65;1.20;;;25.30;92.60;;;;;;7287502;19;20263;-79
2024/03/14 11:08:48;;;;;;;3.10;1.10;;;25.90;92.30;;;;;;7286494;19;20188;-80
2024/03/14 11:11:19;;;;;;;3.70;1.10;;;26.90;91.10;;;;;;7284793;19;20267;-79
2024/03/14 11:13:50;;;;;;;4.47;1.10;;;26.30;91.10;;;;;;7287797;19;20204;-79
2024/03/14 11:16:18;;;;;;;5.13;1.10;;;26.20;91.30;;;;;;7285142;19;20612;-79
2024/03/14 11:18:53;;;;;;;5.07;0.98;;;27.40;90.70;;;;;;7287744;19;20656;-79
2024/03/14 11:21:25;;;;;;;2.58;0.90;;;28.60;88.20;;;;;;7286336;19;20189;-79
2024/03/14 11:23:52;;;;;;;6.15;1.10;;;28.90;85.60;;;;;;7287170;19;20198;-80
2024/03/14 11:26:19;;;;;;;4.82;0.93;;;28.40;80.90;;;;;;7286063;19;20196;-79
2024/03/14 11:28:46;;;;;;;2.85;1.10;;;27.40;83.60;;;;;;7288601;19;20760;-79
2024/03/14 11:31:13;;;;;;;2.78;1.00;;;26.70;83.60;;;;;;7287222;19;20207;-79
2024/03/14 11:33:40;;;;;;;4.07;0.90;;;26.70;85.50;;;;;;7292573;19;20209;-79
2024/03/14 11:36:10;;;;;;;5.13;1.13;;;26.70;85.50;;;;;;7308681;19;20193;-80
2024/03/14 11:38:36;;;;;;;3.63;1.02;;;26.90;84.90;;;;;;7286131;19;20284;-79
2024/03/14 11:41:03;;;;;;;2.75;0.80;;;26.70;85.10;;;;;;7286746;19;20670;-79
2024/03/14 11:43:33;;;;;;;2.45;0.80;;;26.60;86.50;;;;;;7286680;19;20189;-79
2024/03/14 11:46:00;;;;;;;4.63;1.00;;;26.30;86.90;;;;;;7286318;19;20190;-79
2024/03/14 11:48:28;;;;;;;4.57;1.25;;;26.40;87.50;;;;;;7285933;19;20208;-79
2024/03/14 11:50:59;;;;;;;5.68;1.10;;;26.00;87.10;;;;;;7287841;19;20200;-79
2024/03/14 11:53:25;;;;;;;3.22;1.00;;;25.40;90.50;;;;;;7286565;19;20197;-79
2024/03/14 11:55:55;;;;;;;4.57;1.00;;;24.80;90.50;;;;;;7285768;19;20196;-79
2024/03/14 11:58:21;;;;;;;3.03;1.08;;;24.50;92.50;;;;;;7285896;19;20228;-79
2024/03/14 12:00:49;;;;;;;3.20;1.00;;;25.70;91.50;;;;;;7285073;19;20181;-79
2024/03/14 12:03:15;;;;;;;4.47;1.10;;;25.50;90.30;;;;;;7285307;19;20185;-79
2024/03/14 12:05:44;;;;;;;3.35;1.10;;;25.10;88.70;;;;;;7287563;19;20197;-79
2024/03/14 12:08:15;;;;;;;4.28;1.05;;;24.70;91.10;;;;;;7286949;19;20181;-79
2024/03/14 12:10:42;;;;;;;2.57;0.90;;;24.40;91.90;;;;;;7285708;19;20195;-79
2024/03/14 12:13:19;;;;;;;4.23;0.93;;;23.60;92.50;;;;;;7306552;19;20193;-79
2024/03/14 12:15:45;;;;;;;6.13;1.10;;;23.90;93.90;;;;;;7182093;19;2006094;-79
2024/03/14 12:18:12;;;;;;;4.90;0.90;;;24.00;94.30;;;;;;7284875;19;20655;-79
2024/03/14 12:20:46;;;;;;;3.33;1.00;;;24.20;94.10;;;;;;7307099;19;20204;-78
2024/03/14 12:23:11;;;;;;;3.17;1.13;;;24.30;92.40;;;;;;7285806;19;20217;-79
2024/03/14 12:25:38;;;;;;;5.70;1.07;;;23.90;93.40;;;;;;7306830;19;20184;-79
2024/03/14 12:28:09;;;;;;;4.37;1.03;;;23.80;93.80;;;;;;7285213;19;20260;-79
2024/03/14 12:30:39;;;;;;;2.60;0.87;;;23.20;94.40;;;;;;7282836;19;20202;-79
2024/03/14 12:33:08;;;;;;;3.67;0.83;;;22.70;94.80;;;;;;7285002;19;20189;-79
2024/03/14 12:35:34;;;;;;;2.47;0.80;;;23.10;94.60;;;;;;7284751;19;20189;-79
2024/03/14 12:38:01;;;;;;;4.63;1.00;;;23.30;93.60;;;;;;7284647;19;20192;-79
2024/03/14 12:40:29;;;;;;;2.67;0.90;;;23.30;94.90;;;;;;7285146;19;20962;-79
2024/03/14 12:42:56;;;;;;;3.07;0.90;;;23.70;92.90;;;;;;7284605;19;20191;-79
2024/03/14 12:45:25;;;;;;;6.60;1.10;;;23.40;93.80;;;;;;7284853;19;20196;-79
2024/03/14 12:47:54;;;;;;;3.67;1.23;;;23.70;94.00;;;;;;7283220;19;20197;-78